Time;durP1;ratioP1;P1;durP2;ratioP2;P2;SDS_P1;SDS_P2;PMS_P1;PMS_P2;Temp;Humidity;BMP_temperature;BMP_pressure;BME280_temperature;BME280_humidity;BME280_pressure;Samples;Min_cycle;Max_cycle;Signal;HPM_P1;HPM_P2
2022/05/09 00:02:16;;;;;;;8.37;7.67;;;;;;;;;;5081504;28;20662;-67
2022/05/09 00:04:43;;;;;;;8.93;7.70;;;;;;;;;;5074453;28;20429;-66
2022/05/09 00:07:11;;;;;;;10.87;7.67;;;;;;;;;;5074792;28;20251;-66
2022/05/09 00:09:39;;;;;;;8.33;7.53;;;;;;;;;;5074696;28;20679;-66
2022/05/09 00:12:06;;;;;;;8.33;7.53;;;;;;;;;;5075321;28;20248;-66
2022/05/09 00:14:34;;;;;;;7.53;6.90;;;;;;;;;;5074764;28;20197;-66
2022/05/09 00:17:01;;;;;;;8.73;7.93;;;;;;;;;;5074102;28;20274;-65
2022/05/09 00:19:30;;;;;;;8.57;7.27;;;;;;;;;;5074224;28;20209;-65
2022/05/09 00:21:57;;;;;;;8.07;7.27;;;;;;;;;;5070977;28;20202;-66
2022/05/09 00:24:25;;;;;;;7.97;7.17;;;;;;;;;;5088818;28;20224;-65
2022/05/09 00:26:53;;;;;;;8.37;7.60;;;;;;;;;;5074945;28;20212;-65
2022/05/09 00:29:21;;;;;;;8.10;7.40;;;;;;;;;;5074336;28;20635;-67
2022/05/09 00:31:49;;;;;;;8.27;7.53;;;;;;;;;;5074601;28;20710;-65
2022/05/09 00:34:17;;;;;;;8.30;7.50;;;;;;;;;;5070895;28;20205;-66
2022/05/09 00:36:46;;;;;;;8.37;7.57;;;;;;;;;;5090994;28;20200;-66
2022/05/09 00:39:14;;;;;;;8.93;8.13;;;;;;;;;;5074699;28;20201;-64
2022/05/09 00:41:42;;;;;;;9.77;7.90;;;;;;;;;;5074429;28;20682;-66
2022/05/09 00:44:30;;;;;;;9.17;8.33;;;;;;;;;;5074467;28;20211;-65
2022/05/09 00:46:57;;;;;;;9.20;8.33;;;;;;;;;;5074226;28;20228;-64
2022/05/09 00:49:27;;;;;;;9.07;8.17;;;;;;;;;;5074629;28;20204;-65
2022/05/09 00:52:01;;;;;;;9.50;8.60;;;;;;;;;;5074407;28;20228;-65
2022/05/09 00:54:34;;;;;;;8.77;8.00;;;;;;;;;;5074207;28;20200;-67
2022/05/09 00:57:06;;;;;;;10.80;8.53;;;;;;;;;;5072155;28;20228;-64
2022/05/09 00:59:35;;;;;;;10.00;9.00;;;;;;;;;;5091960;28;20685;-65
2022/05/09 01:02:02;;;;;;;9.37;8.47;;;;;;;;;;5074154;28;20207;-65
2022/05/09 01:04:34;;;;;;;10.07;9.07;;;;;;;;;;5074049;28;20248;-65
2022/05/09 01:07:01;;;;;;;10.80;9.70;;;;;;;;;;5073677;28;20237;-65
2022/05/09 01:09:29;;;;;;;10.43;9.37;;;;;;;;;;5073475;28;20262;-66
2022/05/09 01:11:56;;;;;;;10.40;9.40;;;;;;;;;;5071610;28;20767;-65
2022/05/09 01:14:27;;;;;;;10.37;9.37;;;;;;;;;;5070531;28;20231;-66
2022/05/09 01:16:59;;;;;;;10.30;9.33;;;;;;;;;;5091704;28;20315;-65
2022/05/09 01:19:27;;;;;;;9.37;8.47;;;;;;;;;;5073204;28;20592;-65
2022/05/09 01:21:55;;;;;;;9.97;9.00;;;;;;;;;;5073560;28;20204;-65
2022/05/09 01:24:24;;;;;;;10.40;9.30;;;;;;;;;;5057315;28;20224;-65
2022/05/09 01:26:52;;;;;;;10.70;9.17;;;;;;;;;;5072641;28;20216;-66
2022/05/09 01:29:22;;;;;;;10.07;9.13;;;;;;;;;;5070134;28;20851;-65
2022/05/09 01:31:51;;;;;;;9.63;8.73;;;;;;;;;;5083700;28;20298;-64
2022/05/09 01:34:19;;;;;;;10.57;9.57;;;;;;;;;;5073510;28;20584;-66
2022/05/09 01:36:49;;;;;;;10.73;9.73;;;;;;;;;;5073032;28;20208;-66
2022/05/09 01:39:17;;;;;;;10.13;9.17;;;;;;;;;;5073241;28;20201;-66
2022/05/09 01:41:46;;;;;;;10.47;9.37;;;;;;;;;;5073701;28;20212;-66
2022/05/09 01:44:15;;;;;;;11.13;10.07;;;;;;;;;;5073470;28;20739;-65
2022/05/09 01:49:30;;;;;;;11.40;10.20;;;;;;;;;;5086078;28;20759;-65
2022/05/09 01:52:02;;;;;;;11.27;10.07;;;;;;;;;;5073385;28;20232;-65
2022/05/09 01:54:29;;;;;;;11.07;9.93;;;;;;;;;;5073344;28;20582;-66
2022/05/09 01:56:57;;;;;;;10.90;9.53;;;;;;;;;;5072260;28;20420;-65
2022/05/09 01:59:25;;;;;;;10.87;9.77;;;;;;;;;;5073293;28;20658;-65
2022/05/09 02:01:54;;;;;;;11.70;10.50;;;;;;;;;;5072608;28;20227;-63
2022/05/09 02:04:23;;;;;;;12.00;10.80;;;;;;;;;;5072760;28;20227;-66
2022/05/09 02:06:51;;;;;;;11.43;10.33;;;;;;;;;;5072909;28;20722;-64
2022/05/09 02:09:18;;;;;;;11.00;9.90;;;;;;;;;;5072106;28;20216;-65
2022/05/09 02:11:45;;;;;;;11.03;10.03;;;;;;;;;;5071108;28;20277;-64
2022/05/09 02:14:13;;;;;;;10.53;9.53;;;;;;;;;;5077375;28;20612;-65
2022/05/09 02:16:40;;;;;;;11.70;10.50;;;;;;;;;;5072376;28;20207;-66
2022/05/09 02:19:08;;;;;;;11.67;10.47;;;;;;;;;;5073030;28;20279;-66
2022/05/09 02:21:35;;;;;;;12.33;11.07;;;;;;;;;;5071595;28;20201;-66
2022/05/09 02:24:03;;;;;;;12.07;10.93;;;;;;;;;;5090999;28;20197;-66
2022/05/09 02:26:31;;;;;;;11.23;10.10;;;;;;;;;;5072649;28;20231;-66
2022/05/09 02:28:58;;;;;;;11.07;9.93;;;;;;;;;;5090365;28;20252;-65
2022/05/09 02:31:26;;;;;;;10.87;9.77;;;;;;;;;;5090454;28;20201;-66
2022/05/09 02:33:54;;;;;;;10.27;9.27;;;;;;;;;;5072586;28;20254;-65
2022/05/09 02:36:21;;;;;;;9.63;8.73;;;;;;;;;;5072186;28;20197;-65
2022/05/09 02:38:49;;;;;;;9.63;8.67;;;;;;;;;;5071435;28;20220;-65
2022/05/09 02:41:16;;;;;;;14.60;10.83;;;;;;;;;;5075214;28;20289;-65
2022/05/09 02:43:44;;;;;;;14.97;10.73;;;;;;;;;;5061001;28;20205;-65
2022/05/09 02:46:11;;;;;;;8.30;7.50;;;;;;;;;;5059080;28;20201;-65
2022/05/09 02:48:39;;;;;;;8.73;7.93;;;;;;;;;;5072591;28;20270;-65
2022/05/09 02:51:08;;;;;;;9.27;8.17;;;;;;;;;;5070480;28;20255;-65
2022/05/09 02:53:35;;;;;;;9.07;8.27;;;;;;;;;;5070444;28;20563;-65
2022/05/09 02:56:04;;;;;;;9.80;8.80;;;;;;;;;;5072055;28;20212;-65
2022/05/09 02:58:32;;;;;;;11.27;10.17;;;;;;;;;;5071205;28;20246;-65
2022/05/09 03:00:59;;;;;;;10.73;9.73;;;;;;;;;;5088560;28;20513;-65
2022/05/09 03:06:15;;;;;;;11.33;10.13;;;;;;;;;;5089674;28;20239;-65
2022/05/09 03:08:42;;;;;;;13.63;10.80;;;;;;;;;;5071629;28;20300;-65
2022/05/09 03:11:09;;;;;;;11.23;10.13;;;;;;;;;;5071981;28;20232;-65
2022/05/09 03:13:38;;;;;;;11.73;10.63;;;;;;;;;;5070953;28;20235;-66
2022/05/09 03:16:07;;;;;;;10.33;9.33;;;;;;;;;;5072069;28;20205;-65
2022/05/09 03:18:34;;;;;;;11.67;9.87;;;;;;;;;;5071454;28;20220;-65
2022/05/09 03:21:02;;;;;;;9.13;8.33;;;;;;;;;;5070150;28;20220;-65
2022/05/09 03:23:29;;;;;;;9.00;8.10;;;;;;;;;;5067751;28;20616;-68
2022/05/09 03:25:57;;;;;;;10.30;9.27;;;;;;;;;;5076064;28;20197;-65
2022/05/09 03:28:25;;;;;;;10.00;9.00;;;;;;;;;;5075446;28;20228;-66
2022/05/09 03:30:53;;;;;;;10.60;9.60;;;;;;;;;;5078242;28;20209;-65
2022/05/09 03:33:22;;;;;;;12.90;10.53;;;;;;;;;;5075496;28;20254;-65
2022/05/09 03:35:50;;;;;;;11.70;10.50;;;;;;;;;;5075889;28;20197;-66
2022/05/09 03:38:17;;;;;;;12.27;11.07;;;;;;;;;;5075480;28;20224;-65
2022/05/09 03:40:45;;;;;;;13.87;12.10;;;;;;;;;;5075688;28;20246;-65
2022/05/09 03:43:12;;;;;;;13.83;12.50;;;;;;;;;;5075422;28;20205;-66
2022/05/09 03:45:41;;;;;;;13.27;11.87;;;;;;;;;;5071859;28;20206;-65
2022/05/09 03:48:08;;;;;;;14.17;12.73;;;;;;;;;;5072095;28;20228;-65
2022/05/09 03:50:36;;;;;;;14.73;12.20;;;;;;;;;;5087112;28;20223;-66
2022/05/09 03:53:03;;;;;;;14.47;13.07;;;;;;;;;;5071842;28;20231;-65
2022/05/09 03:55:33;;;;;;;15.47;13.20;;;;;;;;;;5074957;28;20201;-67
2022/05/09 03:58:01;;;;;;;15.40;12.30;;;;;;;;;;5093056;28;20605;-65
2022/05/09 04:00:29;;;;;;;10.27;9.17;;;;;;;;;;5075387;28;20243;-65
2022/05/09 04:02:57;;;;;;;9.80;8.90;;;;;;;;;;5073869;28;20644;-65
2022/05/09 04:05:30;;;;;;;11.17;9.60;;;;;;;;;;5075143;28;20205;-66
2022/05/09 04:07:58;;;;;;;11.80;9.63;;;;;;;;;;5074024;28;20651;-64
2022/05/09 04:10:27;;;;;;;10.67;9.53;;;;;;;;;;5074319;28;20258;-66
2022/05/09 04:12:54;;;;;;;9.97;8.97;;;;;;;;;;5074667;28;20671;-63
2022/05/09 04:18:09;;;;;;;10.10;9.20;;;;;;;;;;5087551;28;20312;-66
2022/05/09 04:20:37;;;;;;;9.40;8.50;;;;;;;;;;5075058;28;20280;-64
2022/05/09 04:23:06;;;;;;;9.70;8.80;;;;;;;;;;5075276;28;20201;-64
2022/05/09 04:25:33;;;;;;;8.80;8.10;;;;;;;;;;5075566;28;20205;-66
2022/05/09 04:28:02;;;;;;;9.70;8.80;;;;;;;;;;5074003;28;20229;-66
2022/05/09 04:30:31;;;;;;;11.50;8.43;;;;;;;;;;5074405;28;20570;-66
2022/05/09 04:32:59;;;;;;;8.10;7.40;;;;;;;;;;5073661;28;20225;-66
2022/05/09 04:35:26;;;;;;;9.33;8.03;;;;;;;;;;5074238;28;20708;-65
2022/05/09 04:37:54;;;;;;;9.73;8.83;;;;;;;;;;5072440;28;20860;-64
2022/05/09 04:40:29;;;;;;;10.50;9.50;;;;;;;;;;5070909;28;20703;-65
2022/05/09 04:42:57;;;;;;;10.90;9.90;;;;;;;;;;5074494;28;20205;-64
2022/05/09 04:45:25;;;;;;;11.50;10.30;;;;;;;;;;5073468;28;20204;-64
2022/05/09 04:47:52;;;;;;;12.33;11.10;;;;;;;;;;5073971;28;20303;-65
2022/05/09 04:50:21;;;;;;;12.43;11.20;;;;;;;;;;5074067;28;20201;-65
2022/05/09 04:52:49;;;;;;;10.93;9.93;;;;;;;;;;5072572;28;20217;-66
2022/05/09 04:55:17;;;;;;;10.07;9.17;;;;;;;;;;5074143;28;20197;-65
2022/05/09 04:57:45;;;;;;;10.27;9.33;;;;;;;;;;5073313;28;20522;-66
2022/05/09 05:00:15;;;;;;;10.37;9.47;;;;;;;;;;5073869;28;20200;-66
2022/05/09 05:02:42;;;;;;;11.27;10.27;;;;;;;;;;5074392;28;20205;-64
2022/05/09 05:05:10;;;;;;;10.30;9.30;;;;;;;;;;5073524;28;20247;-65
2022/05/09 05:07:38;;;;;;;11.37;10.27;;;;;;;;;;5073450;28;20604;-66
2022/05/09 05:10:05;;;;;;;12.43;11.13;;;;;;;;;;5072416;28;20624;-65
2022/05/09 05:12:33;;;;;;;13.37;12.07;;;;;;;;;;5073526;28;20324;-65
2022/05/09 05:15:01;;;;;;;13.40;12.10;;;;;;;;;;5073466;28;20460;-64
2022/05/09 05:17:28;;;;;;;14.07;12.67;;;;;;;;;;5073293;28;20232;-64
2022/05/09 05:19:56;;;;;;;12.30;11.20;;;;;;;;;;5073834;28;20205;-66
2022/05/09 05:22:23;;;;;;;10.73;9.80;;;;;;;;;;5073865;28;20212;-67
2022/05/09 05:24:53;;;;;;;11.03;10.03;;;;;;;;;;5073356;28;20193;-65
2022/05/09 05:27:21;;;;;;;8.93;8.13;;;;;;;;;;5073514;28;20224;-65
2022/05/09 05:29:49;;;;;;;7.37;6.77;;;;;;;;;;5073162;28;20545;-66
2022/05/09 05:32:21;;;;;;;8.37;6.00;;;;;;;;;;5073393;28;20663;-64
2022/05/09 05:34:49;;;;;;;7.25;6.55;;;;;;;;;;5073556;28;20201;-66
2022/05/09 05:37:17;;;;;;;6.53;5.93;;;;;;;;;;5072459;28;20232;-67
2022/05/09 05:39:46;;;;;;;6.57;5.93;;;;;;;;;;5072982;28;20234;-66
2022/05/09 05:42:16;;;;;;;6.20;5.72;;;;;;;;;;5072585;28;20213;-65
2022/05/09 05:44:45;;;;;;;6.22;5.72;;;;;;;;;;5069027;28;20603;-66
2022/05/09 05:47:14;;;;;;;6.03;5.60;;;;;;;;;;5069349;28;20584;-66
2022/05/09 05:49:41;;;;;;;5.57;5.10;;;;;;;;;;5090088;28;20200;-63
2022/05/09 05:52:09;;;;;;;6.10;5.57;;;;;;;;;;5073144;28;20716;-66
2022/05/09 05:54:40;;;;;;;6.32;5.70;;;;;;;;;;5072307;28;20225;-65
2022/05/09 05:57:19;;;;;;;6.90;5.78;;;;;;;;;;5072636;28;20583;-65
2022/05/09 05:59:48;;;;;;;6.70;6.00;;;;;;;;;;5074262;28;20690;-65
2022/05/09 06:02:15;;;;;;;6.35;5.85;;;;;;;;;;5074485;28;20236;-66
2022/05/09 06:04:42;;;;;;;6.80;6.07;;;;;;;;;;5081335;28;20205;-64
2022/05/09 06:07:12;;;;;;;6.30;5.72;;;;;;;;;;5072284;28;20235;-65
2022/05/09 06:09:41;;;;;;;7.30;6.07;;;;;;;;;;5072796;28;20208;-66
2022/05/09 06:12:09;;;;;;;7.15;6.55;;;;;;;;;;5072393;28;20208;-66
2022/05/09 06:14:37;;;;;;;7.03;6.43;;;;;;;;;;5072569;28;20225;-66
2022/05/09 06:17:05;;;;;;;7.75;6.85;;;;;;;;;;5072158;28;20256;-65
2022/05/09 06:19:33;;;;;;;7.63;6.93;;;;;;;;;;5072354;28;20201;-65
2022/05/09 06:22:01;;;;;;;8.15;7.45;;;;;;;;;;5072772;28;20200;-66
2022/05/09 06:24:28;;;;;;;7.53;6.80;;;;;;;;;;5071751;28;20259;-65
2022/05/09 06:26:55;;;;;;;9.43;7.97;;;;;;;;;;5072429;28;20247;-65
2022/05/09 06:29:23;;;;;;;8.57;7.78;;;;;;;;;;5072533;28;20216;-65
2022/05/09 06:32:10;;;;;;;9.15;8.30;;;;;;;;;;5085717;28;20487;-65
2022/05/09 06:34:38;;;;;;;10.18;8.52;;;;;;;;;;5072316;28;20224;-65
2022/05/09 06:37:05;;;;;;;10.25;7.97;;;;;;;;;;5065198;28;20228;-65
2022/05/09 06:39:32;;;;;;;11.63;8.48;;;;;;;;;;5072351;28;20684;-66
2022/05/09 06:42:00;;;;;;;8.95;8.15;;;;;;;;;;5072209;28;20197;-66
2022/05/09 06:44:27;;;;;;;8.95;8.18;;;;;;;;;;5071327;28;20220;-66
2022/05/09 06:46:54;;;;;;;9.48;8.63;;;;;;;;;;5071786;28;20201;-64
2022/05/09 06:49:22;;;;;;;11.93;9.63;;;;;;;;;;5072248;28;20283;-65
2022/05/09 06:51:49;;;;;;;9.98;8.98;;;;;;;;;;5071836;28;20205;-67
2022/05/09 06:54:20;;;;;;;10.73;9.63;;;;;;;;;;5061929;28;20272;-64
2022/05/09 06:56:47;;;;;;;9.35;8.02;;;;;;;;;;5069567;28;20204;-65
2022/05/09 06:59:15;;;;;;;9.90;8.98;;;;;;;;;;5072575;28;20201;-65
2022/05/09 07:01:45;;;;;;;10.43;9.52;;;;;;;;;;5072207;28;20284;-65
2022/05/09 07:04:13;;;;;;;10.57;9.63;;;;;;;;;;5072704;28;20634;-65
2022/05/09 07:06:40;;;;;;;10.32;9.32;;;;;;;;;;5072862;28;20209;-66
2022/05/09 07:09:10;;;;;;;10.25;9.25;;;;;;;;;;5068677;28;20217;-65
2022/05/09 07:11:38;;;;;;;10.30;9.25;;;;;;;;;;5071711;28;20666;-65
2022/05/09 07:14:07;;;;;;;10.27;9.23;;;;;;;;;;5072647;28;20715;-65
2022/05/09 07:16:34;;;;;;;10.07;9.10;;;;;;;;;;5072059;28;20200;-65
2022/05/09 07:19:03;;;;;;;9.90;8.90;;;;;;;;;;5071899;28;20224;-66
2022/05/09 07:21:31;;;;;;;9.32;8.52;;;;;;;;;;5072352;28;20201;-65
2022/05/09 07:24:02;;;;;;;10.02;8.80;;;;;;;;;;5071889;28;20209;-66
2022/05/09 07:26:29;;;;;;;9.70;8.80;;;;;;;;;;5084034;28;20212;-67
2022/05/09 07:28:57;;;;;;;9.15;8.13;;;;;;;;;;5051927;28;20707;-65
2022/05/09 07:31:24;;;;;;;10.25;8.77;;;;;;;;;;5070196;28;20204;-66
2022/05/09 07:33:54;;;;;;;8.98;8.20;;;;;;;;;;5090032;28;20636;-66
2022/05/09 07:36:25;;;;;;;9.60;8.70;;;;;;;;;;5072142;28;20216;-66
2022/05/09 07:38:53;;;;;;;8.60;7.78;;;;;;;;;;5070736;28;20239;-66
2022/05/09 07:41:20;;;;;;;8.10;7.35;;;;;;;;;;5071718;28;20208;-65
2022/05/09 07:43:47;;;;;;;8.88;7.95;;;;;;;;;;5087673;28;20201;-65
2022/05/09 07:46:15;;;;;;;8.95;8.00;;;;;;;;;;5072400;28;20205;-65
2022/05/09 07:49:03;;;;;;;8.13;7.38;;;;;;;;;;5054678;28;20682;-66
2022/05/09 07:51:30;;;;;;;9.10;8.23;;;;;;;;;;5069363;28;20209;-66
2022/05/09 07:53:57;;;;;;;8.40;7.70;;;;;;;;;;5071265;28;20248;-66
2022/05/09 07:56:25;;;;;;;9.20;8.30;;;;;;;;;;5070255;28;20209;-68
2022/05/09 07:58:52;;;;;;;9.05;8.25;;;;;;;;;;5071186;28;20228;-65
2022/05/09 08:01:19;;;;;;;8.85;7.97;;;;;;;;;;5068139;28;20210;-66
2022/05/09 08:03:47;;;;;;;8.10;7.40;;;;;;;;;;5076631;28;20705;-66
2022/05/09 08:06:14;;;;;;;8.70;7.85;;;;;;;;;;5078583;28;20222;-66
2022/05/09 08:08:43;;;;;;;8.10;7.30;;;;;;;;;;5078179;28;20232;-68
2022/05/09 08:11:12;;;;;;;8.18;7.47;;;;;;;;;;5075419;28;20212;-66
2022/05/09 08:13:41;;;;;;;8.80;7.13;;;;;;;;;;5075287;28;20246;-67
2022/05/09 08:16:09;;;;;;;7.95;7.25;;;;;;;;;;5074843;28;20205;-65
2022/05/09 08:18:37;;;;;;;9.48;7.38;;;;;;;;;;5074336;28;20588;-65
2022/05/09 08:21:04;;;;;;;7.75;7.10;;;;;;;;;;5074911;28;20205;-65
2022/05/09 08:23:32;;;;;;;7.78;7.05;;;;;;;;;;5074672;28;20643;-67
2022/05/09 08:26:02;;;;;;;8.10;7.40;;;;;;;;;;5075051;28;20212;-65
2022/05/09 08:28:31;;;;;;;7.00;6.38;;;;;;;;;;5075077;28;20229;-66
2022/05/09 08:30:59;;;;;;;7.95;7.15;;;;;;;;;;5074244;28;20234;-65
2022/05/09 08:33:29;;;;;;;6.82;6.22;;;;;;;;;;5074657;28;20448;-65
2022/05/09 08:35:57;;;;;;;7.35;6.35;;;;;;;;;;5073512;28;20198;-65
2022/05/09 08:38:24;;;;;;;7.38;6.28;;;;;;;;;;5073943;28;20600;-66
2022/05/09 08:40:58;;;;;;;7.32;6.45;;;;;;;;;;5074000;28;20200;-65
2022/05/09 08:43:31;;;;;;;7.55;6.65;;;;;;;;;;5071422;28;20205;-66
2022/05/09 08:46:05;;;;;;;7.68;6.88;;;;;;;;;;5074680;28;20201;-65
2022/05/09 08:48:42;;;;;;;7.40;6.80;;;;;;;;;;5073707;28;20232;-64
2022/05/09 08:51:14;;;;;;;7.85;7.15;;;;;;;;;;5065502;28;20220;-65
2022/05/09 08:53:43;;;;;;;7.47;6.63;;;;;;;;;;5068017;28;20220;-68
2022/05/09 08:56:12;;;;;;;7.70;6.95;;;;;;;;;;5073985;28;20321;-65
2022/05/09 08:58:40;;;;;;;8.65;6.93;;;;;;;;;;5074203;28;20294;-65
2022/05/09 09:01:34;;;;;;;7.32;6.63;;;;;;;;;;5074412;28;20750;-66
2022/05/09 09:04:04;;;;;;;7.28;6.55;;;;;;;;;;5031374;28;20303;-65
2022/05/09 09:06:32;;;;;;;7.43;6.68;;;;;;;;;;5074074;28;20303;-65
2022/05/09 09:09:02;;;;;;;7.65;6.60;;;;;;;;;;5073141;28;20232;-64
2022/05/09 09:11:48;;;;;;;7.85;7.15;;;;;;;;;;5073833;28;20292;-65
2022/05/09 09:14:35;;;;;;;7.60;7.00;;;;;;;;;;5073913;28;20611;-65
2022/05/09 09:17:17;;;;;;;7.38;6.68;;;;;;;;;;5074052;28;20232;-65
2022/05/09 09:19:57;;;;;;;6.50;6.00;;;;;;;;;;5073903;28;20185;-65
2022/05/09 09:22:44;;;;;;;7.22;6.53;;;;;;;;;;5073245;28;20200;-68
2022/05/09 09:25:26;;;;;;;7.45;6.75;;;;;;;;;;5072186;28;20216;-66
2022/05/09 09:27:57;;;;;;;7.25;6.55;;;;;;;;;;5073708;28;20230;-66
2022/05/09 09:30:25;;;;;;;6.95;6.35;;;;;;;;;;5073919;28;20216;-65
2022/05/09 09:32:55;;;;;;;7.05;6.25;;;;;;;;;;5073589;28;20197;-64
2022/05/09 09:35:58;;;;;;;7.40;6.55;;;;;;;;;;5073407;28;20367;-66
2022/05/09 09:38:32;;;;;;;6.70;6.10;;;;;;;;;;5003244;28;20219;-66
2022/05/09 09:41:18;;;;;;;6.50;5.93;;;;;;;;;;5060912;28;20212;-66
2022/05/09 09:43:47;;;;;;;6.90;5.97;;;;;;;;;;5071774;28;20196;-65
2022/05/09 09:46:14;;;;;;;7.05;6.20;;;;;;;;;;5073579;28;20204;-67
2022/05/09 09:48:43;;;;;;;6.80;6.00;;;;;;;;;;5072196;28;20297;-66
2022/05/09 09:51:12;;;;;;;7.20;6.57;;;;;;;;;;5073645;28;20248;-67
2022/05/09 09:53:46;;;;;;;7.82;7.03;;;;;;;;;;5073278;28;20589;-67
2022/05/09 09:56:22;;;;;;;7.35;5.75;;;;;;;;;;5072704;28;20258;-67
2022/05/09 09:58:57;;;;;;;6.85;6.15;;;;;;;;;;5069956;28;20299;-67
2022/05/09 10:01:26;;;;;;;7.13;6.25;;;;;;;;;;5072534;28;20209;-67
2022/05/09 10:04:12;;;;;;;6.78;5.88;;;;;;;;;;5066702;28;20235;-67
2022/05/09 10:07:01;;;;;;;6.65;5.93;;;;;;;;;;5072373;28;20216;-67
2022/05/09 10:09:30;;;;;;;7.15;6.45;;;;;;;;;;5072659;28;20213;-67
2022/05/09 10:12:14;;;;;;;7.25;6.63;;;;;;;;;;5091602;28;20217;-67
2022/05/09 10:14:42;;;;;;;7.15;6.55;;;;;;;;;;5071932;28;20289;-67
2022/05/09 10:17:36;;;;;;;6.57;6.07;;;;;;;;;;5069153;28;20669;-65
2022/05/09 10:20:23;;;;;;;7.45;6.75;;;;;;;;;;5049679;28;20268;-65
2022/05/09 10:25:55;;;;;;;7.50;6.82;;;;;;;;;;5080546;28;20215;-67
2022/05/09 10:28:24;;;;;;;6.47;5.68;;;;;;;;;;5072284;28;20728;-67
2022/05/09 10:30:55;;;;;;;6.40;5.72;;;;;;;;;;5071977;28;20690;-67
2022/05/09 10:33:38;;;;;;;6.55;5.95;;;;;;;;;;5068758;28;20252;-67
2022/05/09 10:36:08;;;;;;;6.50;5.90;;;;;;;;;;5072323;28;20662;-67
2022/05/09 10:38:49;;;;;;;7.53;6.82;;;;;;;;;;5071674;28;20623;-66
2022/05/09 10:41:20;;;;;;;6.43;5.82;;;;;;;;;;5072519;28;20204;-66
2022/05/09 10:44:11;;;;;;;7.22;6.43;;;;;;;;;;5072671;28;20227;-66
2022/05/09 10:46:42;;;;;;;6.35;5.75;;;;;;;;;;5029936;28;20238;-67
2022/05/09 10:49:13;;;;;;;6.90;6.30;;;;;;;;;;5067433;28;20205;-66
2022/05/09 10:51:55;;;;;;;6.97;6.38;;;;;;;;;;5071004;28;20212;-67
2022/05/09 10:54:31;;;;;;;7.43;6.75;;;;;;;;;;5072123;28;20228;-66
2022/05/09 10:57:18;;;;;;;5.95;5.45;;;;;;;;;;5072137;28;20255;-66
2022/05/09 11:00:19;;;;;;;6.15;5.55;;;;;;;;;;5074516;28;20622;-66
2022/05/09 11:02:53;;;;;;;7.00;6.40;;;;;;;;;;5072129;28;20196;-66
2022/05/09 11:05:21;;;;;;;7.43;6.68;;;;;;;;;;5089684;28;20619;-66
2022/05/09 11:07:55;;;;;;;8.05;6.68;;;;;;;;;;5071405;28;20224;-65
2022/05/09 11:10:55;;;;;;;7.10;6.30;;;;;;;;;;5072047;28;20260;-67
2022/05/09 11:13:37;;;;;;;7.93;6.70;;;;;;;;;;5037961;28;20622;-67
2022/05/09 11:16:19;;;;;;;6.80;6.20;;;;;;;;;;5072995;28;20201;-67
2022/05/09 11:19:04;;;;;;;7.05;6.47;;;;;;;;;;5068864;28;20717;-67
2022/05/09 11:21:38;;;;;;;8.82;6.05;;;;;;;;;;5072328;28;20409;-67
2022/05/09 11:24:13;;;;;;;5.78;5.28;;;;;;;;;;5070841;28;20354;-67
2022/05/09 11:26:43;;;;;;;6.63;6.00;;;;;;;;;;5071484;28;20208;-68
2022/05/09 11:29:30;;;;;;;5.90;5.40;;;;;;;;;;5072043;28;20208;-67
2022/05/09 11:32:08;;;;;;;6.50;5.30;;;;;;;;;;5070649;28;20654;-68
2022/05/09 11:34:57;;;;;;;6.15;5.65;;;;;;;;;;5071965;28;20702;-67
2022/05/09 11:37:48;;;;;;;6.22;5.72;;;;;;;;;;5071279;28;20236;-66
2022/05/09 11:40:31;;;;;;;6.32;5.57;;;;;;;;;;5032606;28;20202;-67
2022/05/09 11:43:29;;;;;;;6.32;5.72;;;;;;;;;;5073561;28;20197;-67
2022/05/09 11:46:09;;;;;;;9.80;6.13;;;;;;;;;;5075192;28;20216;-66
2022/05/09 11:48:49;;;;;;;6.53;5.72;;;;;;;;;;5075130;28;20217;-67
2022/05/09 11:51:21;;;;;;;6.38;5.78;;;;;;;;;;5074606;28;20217;-66
2022/05/09 11:53:55;;;;;;;6.90;6.18;;;;;;;;;;5075388;28;20254;-67
2022/05/09 11:56:23;;;;;;;5.75;5.30;;;;;;;;;;5090218;28;20447;-67
2022/05/09 11:58:51;;;;;;;7.82;6.30;;;;;;;;;;5074866;28;20216;-67
2022/05/09 12:01:38;;;;;;;6.35;5.85;;;;;;;;;;5075465;28;20196;-66
2022/05/09 12:04:06;;;;;;;6.00;5.50;;;;;;;;;;5074713;28;20269;-66
2022/05/09 12:06:36;;;;;;;5.20;4.80;;;;;;;;;;5074982;28;20204;-67
2022/05/09 12:09:08;;;;;;;6.10;5.50;;;;;;;;;;5075560;28;20235;-67
2022/05/09 12:11:47;;;;;;;5.90;5.40;;;;;;;;;;5087246;28;20193;-67
2022/05/09 12:14:33;;;;;;;5.78;5.28;;;;;;;;;;5076621;28;20232;-67
2022/05/09 12:17:01;;;;;;;6.32;5.72;;;;;;;;;;5075302;28;20237;-67
2022/05/09 12:19:34;;;;;;;5.75;5.35;;;;;;;;;;5075109;28;20200;-67
2022/05/09 12:22:40;;;;;;;5.78;5.28;;;;;;;;;;5075492;28;20218;-67
2022/05/09 12:25:10;;;;;;;6.05;5.50;;;;;;;;;;4994610;28;20211;-66
2022/05/09 12:27:40;;;;;;;6.38;5.78;;;;;;;;;;4992312;28;20223;-66
2022/05/09 12:30:34;;;;;;;6.47;5.78;;;;;;;;;;5030599;28;20208;-66
2022/05/09 12:33:04;;;;;;;6.25;5.65;;;;;;;;;;5073838;28;20213;-67
2022/05/09 12:35:32;;;;;;;5.93;5.43;;;;;;;;;;5074585;28;20221;-67
2022/05/09 12:37:59;;;;;;;6.80;5.95;;;;;;;;;;5074154;28;20219;-67
2022/05/09 12:40:26;;;;;;;6.85;6.18;;;;;;;;;;5073812;28;20494;-67
2022/05/09 12:42:59;;;;;;;7.03;6.13;;;;;;;;;;5074155;28;20618;-67
2022/05/09 12:45:27;;;;;;;6.30;5.65;;;;;;;;;;5073725;28;20213;-65
2022/05/09 12:47:54;;;;;;;6.68;6.03;;;;;;;;;;5069769;28;20224;-65
2022/05/09 12:50:34;;;;;;;6.70;6.10;;;;;;;;;;5074369;28;20220;-66
2022/05/09 12:53:07;;;;;;;6.53;5.93;;;;;;;;;;5074104;28;20215;-67
2022/05/09 12:58:23;;;;;;;5.93;5.43;;;;;;;;;;5090084;28;20581;-67
2022/05/09 13:00:55;;;;;;;6.05;5.55;;;;;;;;;;5074161;28;20659;-67
2022/05/09 13:03:48;;;;;;;5.95;4.90;;;;;;;;;;5077183;28;20201;-67
2022/05/09 13:06:18;;;;;;;5.15;4.65;;;;;;;;;;5074118;28;20209;-66
2022/05/09 13:08:45;;;;;;;5.20;4.80;;;;;;;;;;5083025;28;20259;-66
2022/05/09 13:11:15;;;;;;;5.25;4.80;;;;;;;;;;5091048;28;20205;-66
2022/05/09 13:13:54;;;;;;;5.55;5.05;;;;;;;;;;5072817;28;20242;-66
2022/05/09 13:16:23;;;;;;;5.28;4.88;;;;;;;;;;5092218;28;20232;-66
2022/05/09 13:18:50;;;;;;;6.18;5.45;;;;;;;;;;5072172;28;20228;-67
2022/05/09 13:21:22;;;;;;;5.40;5.00;;;;;;;;;;5073434;28;20200;-67
2022/05/09 13:23:50;;;;;;;5.65;5.25;;;;;;;;;;5073407;28;20551;-67
2022/05/09 13:26:19;;;;;;;5.65;5.15;;;;;;;;;;5073287;28;20196;-66
2022/05/09 13:28:48;;;;;;;5.95;5.32;;;;;;;;;;5076596;28;20266;-66
2022/05/09 13:31:28;;;;;;;5.10;4.70;;;;;;;;;;5091186;28;20209;-67
2022/05/09 13:33:56;;;;;;;4.85;4.45;;;;;;;;;;5073054;28;20210;-65
2022/05/09 13:36:47;;;;;;;5.55;5.05;;;;;;;;;;5074000;28;20221;-67
2022/05/09 13:39:22;;;;;;;5.43;4.97;;;;;;;;;;5070290;28;20197;-67
2022/05/09 13:41:49;;;;;;;4.82;4.43;;;;;;;;;;5067610;28;20400;-67
2022/05/09 13:44:20;;;;;;;5.43;4.65;;;;;;;;;;5069803;28;20197;-66
2022/05/09 13:46:49;;;;;;;6.25;4.57;;;;;;;;;;5071949;28;20209;-66
2022/05/09 13:49:18;;;;;;;5.35;4.85;;;;;;;;;;5073113;28;20271;-66
2022/05/09 13:51:54;;;;;;;5.00;4.63;;;;;;;;;;5072810;28;20546;-65
2022/05/09 13:54:26;;;;;;;5.45;5.05;;;;;;;;;;5072841;28;20200;-66
2022/05/09 13:57:11;;;;;;;5.75;4.90;;;;;;;;;;5072819;28;20200;-66
2022/05/09 13:59:45;;;;;;;6.60;5.13;;;;;;;;;;5073509;28;20284;-67
2022/05/09 14:02:14;;;;;;;4.90;4.50;;;;;;;;;;5073390;28;20223;-66
2022/05/09 14:04:42;;;;;;;4.85;4.50;;;;;;;;;;5071842;28;20227;-66
2022/05/09 14:10:20;;;;;;;5.75;5.35;;;;;;;;;;5089249;28;20212;-66
2022/05/09 14:12:47;;;;;;;5.40;5.00;;;;;;;;;;5039281;28;20376;-67
2022/05/09 14:15:18;;;;;;;5.20;4.70;;;;;;;;;;5072995;28;20233;-67
2022/05/09 14:17:59;;;;;;;4.80;4.40;;;;;;;;;;5071229;28;20293;-67
2022/05/09 14:20:33;;;;;;;4.90;4.40;;;;;;;;;;5072645;28;20301;-67
2022/05/09 14:23:01;;;;;;;5.03;4.63;;;;;;;;;;5072712;28;20585;-67
2022/05/09 14:31:29;;;;;;;4.45;4.05;;;;;;;;;;5085122;28;20619;-66
2022/05/09 14:33:57;;;;;;;4.45;4.10;;;;;;;;;;5089216;28;20670;-66
2022/05/09 14:36:34;;;;;;;5.13;3.95;;;;;;;;;;5072221;28;20766;-67
2022/05/09 14:39:17;;;;;;;4.80;4.40;;;;;;;;;;5072591;28;20209;-66
2022/05/09 14:41:46;;;;;;;4.53;4.13;;;;;;;;;;5073138;28;20235;-66
2022/05/09 14:44:25;;;;;;;5.97;4.38;;;;;;;;;;5072365;28;20200;-66
2022/05/09 14:46:58;;;;;;;4.65;4.25;;;;;;;;;;5072468;28;20209;-67
2022/05/09 14:49:48;;;;;;;4.57;4.28;;;;;;;;;;5072444;28;20205;-66
2022/05/09 14:52:26;;;;;;;4.50;4.10;;;;;;;;;;5072619;28;20204;-66
2022/05/09 14:57:25;;;;;;;4.85;4.45;;;;;;;;;;5090423;28;20224;-67
2022/05/09 14:57:50;;;;;;;5.00;4.50;;;;;;;;;;5086184;28;20220;-65
2022/05/09 15:00:28;;;;;;;4.70;4.30;;;;;;;;;;5052553;28;20202;-66
2022/05/09 15:02:57;;;;;;;4.65;4.25;;;;;;;;;;5053262;28;20192;-66
2022/05/09 15:05:24;;;;;;;4.38;4.07;;;;;;;;;;5068692;28;20202;-66
2022/05/09 15:07:55;;;;;;;4.40;4.00;;;;;;;;;;5082375;28;20225;-67
2022/05/09 15:10:23;;;;;;;4.00;3.67;;;;;;;;;;5071297;28;20252;-65
2022/05/09 15:12:50;;;;;;;3.90;3.60;;;;;;;;;;5071714;28;20686;-65
2022/05/09 15:15:18;;;;;;;3.83;3.55;;;;;;;;;;5067698;28;20235;-66
2022/05/09 15:17:45;;;;;;;3.70;3.40;;;;;;;;;;5075078;28;20220;-66
2022/05/09 15:20:13;;;;;;;4.65;3.50;;;;;;;;;;5076144;28;20666;-66
2022/05/09 15:22:40;;;;;;;4.20;3.90;;;;;;;;;;5074771;28;20205;-66
2022/05/09 15:25:09;;;;;;;6.68;4.10;;;;;;;;;;5075851;28;20212;-67
2022/05/09 15:27:38;;;;;;;3.85;3.55;;;;;;;;;;5075215;28;20224;-67